Time;durP1;ratioP1;P1;durP2;ratioP2;P2;SDS_P1;SDS_P2;PMS_P1;PMS_P2;Temp;Humidity;BMP_temperature;BMP_pressure;BME280_temperature;BME280_humidity;BME280_pressure;Samples;Min_cycle;Max_cycle;Signal;HPM_P1;HPM_P2
2021/05/24 00:00:16;;;;;;;5.97;5.00;;;9.20;99.90;;;;;;5049858;28;20573;-68
2021/05/24 00:02:45;;;;;;;5.20;4.70;;;9.20;99.90;;;;;;5050089;28;20069;-68
2021/05/24 00:05:18;;;;;;;5.53;4.85;;;9.20;99.90;;;;;;5049192;28;20059;-68
2021/05/24 00:07:47;;;;;;;6.18;5.38;;;9.20;99.90;;;;;;5062242;28;20053;-67
2021/05/24 00:10:21;;;;;;;5.72;5.00;;;9.10;99.90;;;;;;5049254;28;20056;-68
2021/05/24 00:12:50;;;;;;;5.68;5.07;;;9.10;99.90;;;;;;5042115;28;20044;-67
2021/05/24 00:15:28;;;;;;;6.22;4.97;;;9.00;99.90;;;;;;5048145;28;20442;-67
2021/05/24 00:17:58;;;;;;;6.28;5.10;;;9.00;99.90;;;;;;5044820;28;20052;-68
2021/05/24 00:20:29;;;;;;;7.38;5.13;;;9.00;99.90;;;;;;5047686;28;20136;-68
2021/05/24 00:22:57;;;;;;;6.72;5.15;;;9.00;99.90;;;;;;5046218;28;20488;-68
2021/05/24 00:25:27;;;;;;;6.78;4.78;;;8.90;99.90;;;;;;5047507;28;20049;-68
2021/05/24 00:27:55;;;;;;;5.53;5.03;;;8.90;99.90;;;;;;5046389;28;20045;-68
2021/05/24 00:30:23;;;;;;;7.18;5.22;;;8.80;99.90;;;;;;5045931;28;20033;-67
2021/05/24 00:32:50;;;;;;;6.70;5.50;;;8.70;99.90;;;;;;5045536;28;20510;-68
2021/05/24 00:35:18;;;;;;;6.13;5.22;;;8.70;99.90;;;;;;5046513;28;20044;-68
2021/05/24 00:38:07;;;;;;;5.30;4.80;;;8.60;99.90;;;;;;5032352;28;20131;-68
2021/05/24 00:40:36;;;;;;;6.40;5.00;;;8.60;99.90;;;;;;5049182;28;20045;-68
2021/05/24 00:43:06;;;;;;;6.63;4.80;;;8.60;99.90;;;;;;5045274;28;20459;-68
2021/05/24 00:45:34;;;;;;;7.53;5.10;;;8.60;99.90;;;;;;5049800;28;20060;-67
2021/05/24 00:48:03;;;;;;;6.28;4.40;;;8.70;99.90;;;;;;5045582;28;20041;-68
2021/05/24 00:50:31;;;;;;;5.05;4.45;;;8.70;99.90;;;;;;5045466;28;20037;-68
2021/05/24 00:52:59;;;;;;;5.28;4.78;;;8.70;99.90;;;;;;5016274;28;20057;-68
2021/05/24 00:55:26;;;;;;;5.00;4.50;;;8.70;99.90;;;;;;5047004;28;20083;-68
2021/05/24 00:57:55;;;;;;;6.55;4.60;;;8.70;99.90;;;;;;5044193;28;20053;-68
2021/05/24 01:00:41;;;;;;;5.28;4.20;;;8.70;99.90;;;;;;5048874;28;20053;-68
2021/05/24 01:03:11;;;;;;;5.72;4.60;;;8.70;99.90;;;;;;5045441;28;20381;-68
2021/05/24 01:05:41;;;;;;;4.85;4.35;;;8.70;99.90;;;;;;5048782;28;20044;-68
2021/05/24 01:08:11;;;;;;;5.47;4.90;;;8.60;99.90;;;;;;5046254;28;20037;-68
2021/05/24 01:10:38;;;;;;;4.80;4.35;;;8.70;99.90;;;;;;5050465;28;20076;-68
2021/05/24 01:13:08;;;;;;;4.70;4.20;;;8.60;99.90;;;;;;5051108;28;20068;-68
2021/05/24 01:15:36;;;;;;;5.00;4.30;;;8.60;99.90;;;;;;5052850;28;20060;-68
2021/05/24 01:18:07;;;;;;;5.13;4.55;;;8.60;99.90;;;;;;5053067;28;20064;-68
2021/05/24 01:20:35;;;;;;;10.32;4.47;;;8.60;99.90;;;;;;5050860;28;20491;-68
2021/05/24 01:25:33;;;;;;;5.15;3.85;;;8.60;99.90;;;;;;5052441;28;20052;-68
2021/05/24 01:28:02;;;;;;;5.47;4.35;;;8.60;99.90;;;;;;5053043;28;20128;-67
2021/05/24 01:30:31;;;;;;;4.57;4.15;;;8.60;99.90;;;;;;5051425;28;20080;-67
2021/05/24 01:32:59;;;;;;;4.97;4.38;;;8.60;99.90;;;;;;5051596;28;20052;-67
2021/05/24 01:35:28;;;;;;;5.57;4.28;;;8.60;99.90;;;;;;5051226;28;20106;-67
2021/05/24 01:37:55;;;;;;;4.50;4.10;;;8.60;99.90;;;;;;5048311;28;20411;-67
2021/05/24 01:40:23;;;;;;;5.40;4.18;;;8.60;99.90;;;;;;5051634;28;20128;-67
2021/05/24 01:42:56;;;;;;;6.88;4.15;;;8.60;99.90;;;;;;5047022;28;20061;-69
2021/05/24 01:45:25;;;;;;;6.68;4.28;;;8.60;99.90;;;;;;5051514;28;20380;-69
2021/05/24 01:47:54;;;;;;;4.90;3.97;;;8.60;99.90;;;;;;5051055;28;20419;-69
2021/05/24 01:50:22;;;;;;;4.72;4.22;;;8.60;99.90;;;;;;5050491;28;20053;-69
2021/05/24 01:52:50;;;;;;;5.45;4.15;;;8.60;99.90;;;;;;5047637;28;20518;-69
2021/05/24 01:55:18;;;;;;;4.97;4.13;;;8.60;99.90;;;;;;5049046;28;20053;-69
2021/05/24 01:57:45;;;;;;;5.07;4.20;;;8.70;99.90;;;;;;5048750;28;20044;-69
2021/05/24 02:00:20;;;;;;;4.20;3.80;;;8.70;99.90;;;;;;5048569;28;20040;-69
2021/05/24 02:02:49;;;;;;;5.65;4.05;;;8.70;99.90;;;;;;5049820;28;21388;-69
2021/05/24 02:05:19;;;;;;;4.70;4.20;;;8.70;99.90;;;;;;5051308;28;20059;-69
2021/05/24 02:07:47;;;;;;;5.28;4.10;;;8.80;99.90;;;;;;5047137;28;20515;-69
2021/05/24 02:10:24;;;;;;;4.82;4.10;;;8.70;99.90;;;;;;5051467;28;20048;-69
2021/05/24 02:12:54;;;;;;;4.80;3.80;;;8.70;99.90;;;;;;5064901;28;20045;-69
2021/05/24 02:15:28;;;;;;;4.97;3.60;;;8.70;99.90;;;;;;5033202;28;20060;-69
2021/05/24 02:17:56;;;;;;;5.32;4.00;;;8.70;99.90;;;;;;5051541;28;20115;-69
2021/05/24 02:20:25;;;;;;;4.00;3.60;;;8.70;99.90;;;;;;5050128;28;20434;-69
2021/05/24 02:22:54;;;;;;;4.20;3.75;;;8.70;99.90;;;;;;5062510;28;20053;-68
2021/05/24 02:25:23;;;;;;;4.90;3.90;;;8.60;99.90;;;;;;5065690;28;20044;-67
2021/05/24 02:27:51;;;;;;;4.07;3.67;;;8.60;99.90;;;;;;5048799;28;20052;-67
2021/05/24 02:30:21;;;;;;;4.55;3.95;;;8.60;99.90;;;;;;5051140;28;20128;-68
2021/05/24 02:32:49;;;;;;;5.18;4.10;;;8.50;99.90;;;;;;5048150;28;20053;-68
2021/05/24 02:35:20;;;;;;;5.00;4.00;;;8.50;99.90;;;;;;5050393;28;20068;-68
2021/05/24 02:37:49;;;;;;;5.43;4.03;;;8.50;99.90;;;;;;5046071;28;20090;-68
2021/05/24 02:40:19;;;;;;;5.35;3.80;;;8.50;99.90;;;;;;5049566;28;20284;-68
2021/05/24 02:42:47;;;;;;;4.38;3.80;;;8.50;99.90;;;;;;5047604;28;20053;-68
2021/05/24 02:45:17;;;;;;;4.55;4.03;;;8.50;99.90;;;;;;5050437;28;20557;-68
2021/05/24 02:47:45;;;;;;;6.60;3.90;;;8.40;99.90;;;;;;5044829;28;20140;-68
2021/05/24 02:50:17;;;;;;;4.50;3.80;;;8.40;99.90;;;;;;5045274;28;20049;-68
2021/05/24 02:52:45;;;;;;;4.88;3.83;;;8.40;99.90;;;;;;5045654;28;20346;-68
2021/05/24 02:55:13;;;;;;;4.55;4.00;;;8.40;99.90;;;;;;5045081;28;20127;-68
2021/05/24 02:57:41;;;;;;;6.72;3.78;;;8.40;99.90;;;;;;5048798;28;20040;-68
2021/05/24 03:00:09;;;;;;;5.63;4.00;;;8.50;99.90;;;;;;5047508;28;20056;-68
2021/05/24 03:02:49;;;;;;;5.22;3.85;;;8.60;99.90;;;;;;5050155;28;20057;-68
2021/05/24 03:05:21;;;;;;;6.38;4.25;;;8.60;99.90;;;;;;5047791;28;20103;-68
2021/05/24 03:07:51;;;;;;;5.25;4.45;;;8.60;99.90;;;;;;5047542;28;20041;-68
2021/05/24 03:10:21;;;;;;;6.63;4.78;;;8.60;99.90;;;;;;5046465;28;20132;-68
2021/05/24 03:12:49;;;;;;;5.20;4.07;;;8.70;99.90;;;;;;5047704;28;20407;-68
2021/05/24 03:15:18;;;;;;;6.55;4.18;;;8.70;99.90;;;;;;5049260;28;20048;-68
2021/05/24 03:17:46;;;;;;;5.93;4.85;;;8.80;99.90;;;;;;5046663;28;20053;-68
2021/05/24 03:20:16;;;;;;;6.43;4.80;;;8.80;99.90;;;;;;5049124;28;20045;-68
2021/05/24 03:22:45;;;;;;;6.07;4.38;;;8.80;99.90;;;;;;5046996;28;20087;-68
2021/05/24 03:25:14;;;;;;;7.05;4.35;;;8.80;99.90;;;;;;5028788;28;20388;-68
2021/05/24 03:27:42;;;;;;;5.60;4.72;;;8.80;99.90;;;;;;5047901;28;20083;-68
2021/05/24 03:30:11;;;;;;;5.57;4.50;;;8.80;99.90;;;;;;5049110;28;20090;-68
2021/05/24 03:32:39;;;;;;;5.03;4.25;;;8.80;99.90;;;;;;5049415;28;20037;-68
2021/05/24 03:35:07;;;;;;;5.90;4.03;;;8.80;99.90;;;;;;5047857;28;20057;-69
2021/05/24 03:37:35;;;;;;;5.32;4.30;;;8.80;99.90;;;;;;5049543;28;20045;-68
2021/05/24 03:40:07;;;;;;;6.50;4.80;;;8.90;99.90;;;;;;5048267;28;20055;-68
2021/05/24 03:42:35;;;;;;;5.47;4.68;;;8.90;99.90;;;;;;5045095;28;20514;-69
2021/05/24 03:45:09;;;;;;;5.35;4.45;;;8.90;99.90;;;;;;5048081;28;20053;-68
2021/05/24 03:47:36;;;;;;;7.70;4.70;;;9.00;99.90;;;;;;5062941;28;20052;-68
2021/05/24 03:50:05;;;;;;;4.53;3.90;;;9.00;99.90;;;;;;5047871;28;20053;-68
2021/05/24 03:52:36;;;;;;;6.50;4.32;;;9.00;99.90;;;;;;5046658;28;20049;-69
2021/05/24 03:55:05;;;;;;;5.00;4.50;;;9.00;99.90;;;;;;5046677;28;20072;-69
2021/05/24 03:57:33;;;;;;;6.40;4.07;;;9.10;99.90;;;;;;5048176;28;20488;-68
2021/05/24 04:00:10;;;;;;;5.30;4.20;;;9.10;99.90;;;;;;5046067;28;20057;-68
2021/05/24 04:02:41;;;;;;;4.75;4.18;;;9.20;99.90;;;;;;5047498;28;20118;-68
2021/05/24 04:05:23;;;;;;;7.90;4.35;;;9.20;99.90;;;;;;5049745;28;20106;-68
2021/05/24 04:07:53;;;;;;;5.35;4.60;;;9.30;99.90;;;;;;5047667;28;20053;-68
2021/05/24 04:10:24;;;;;;;5.38;4.88;;;9.30;99.90;;;;;;5049279;28;20052;-68
2021/05/24 04:12:52;;;;;;;5.55;4.82;;;9.30;99.90;;;;;;5046775;28;20122;-68
2021/05/24 04:15:19;;;;;;;4.95;4.25;;;9.40;99.90;;;;;;5048920;28;20069;-68
2021/05/24 04:17:48;;;;;;;5.38;4.88;;;9.50;99.90;;;;;;5046763;28;20102;-68
2021/05/24 04:20:16;;;;;;;5.35;4.85;;;9.50;99.90;;;;;;5047935;28;20041;-68
2021/05/24 04:22:44;;;;;;;6.20;4.22;;;9.50;99.90;;;;;;5047477;28;20503;-68
2021/05/24 04:25:12;;;;;;;5.97;4.65;;;9.60;99.90;;;;;;5047690;28;20052;-69
2021/05/24 04:27:40;;;;;;;5.35;4.72;;;9.60;99.90;;;;;;5047589;28;20083;-68
2021/05/24 04:30:09;;;;;;;5.03;4.53;;;9.70;99.90;;;;;;5047921;28;20443;-68
2021/05/24 04:32:37;;;;;;;7.88;4.68;;;9.70;99.90;;;;;;5046294;28;20053;-68
2021/05/24 04:35:07;;;;;;;6.15;4.78;;;9.80;99.90;;;;;;5046397;28;20045;-68
2021/05/24 04:37:34;;;;;;;4.97;4.45;;;9.90;99.90;;;;;;5048896;28;20089;-68
2021/05/24 04:40:03;;;;;;;5.22;4.72;;;9.90;99.90;;;;;;5046138;28;20068;-69
2021/05/24 04:42:31;;;;;;;7.15;5.10;;;10.00;99.90;;;;;;5048671;28;20099;-68
2021/05/24 04:44:58;;;;;;;6.40;4.88;;;10.10;99.90;;;;;;5048852;28;20373;-68
2021/05/24 04:47:27;;;;;;;8.15;5.45;;;10.20;99.90;;;;;;5050874;28;20781;-69
2021/05/24 04:49:55;;;;;;;5.82;5.30;;;10.30;99.90;;;;;;5050670;28;20053;-68
2021/05/24 04:52:23;;;;;;;6.25;5.40;;;10.40;99.90;;;;;;5049587;28;20067;-68
2021/05/24 04:54:51;;;;;;;6.85;5.35;;;10.50;99.90;;;;;;5049058;28;20091;-68
2021/05/24 04:57:18;;;;;;;5.82;5.32;;;10.60;99.90;;;;;;5050994;28;20503;-68
2021/05/24 04:59:46;;;;;;;5.97;5.47;;;10.70;99.90;;;;;;5049036;28;20044;-68
2021/05/24 05:02:14;;;;;;;6.10;5.60;;;10.80;99.90;;;;;;5050032;28;20442;-69
2021/05/24 05:04:41;;;;;;;6.65;5.95;;;10.90;99.90;;;;;;5050950;28;20488;-68
2021/05/24 05:07:09;;;;;;;7.32;6.25;;;11.00;99.90;;;;;;5049764;28;20103;-69
2021/05/24 05:09:36;;;;;;;6.88;6.18;;;11.10;99.90;;;;;;5052658;28;20476;-68
2021/05/24 05:12:04;;;;;;;6.03;5.53;;;11.20;99.90;;;;;;5050684;28;20511;-69
2021/05/24 05:14:32;;;;;;;6.38;5.78;;;11.30;99.90;;;;;;5050962;28;20086;-68
2021/05/24 05:17:00;;;;;;;7.13;6.43;;;11.30;99.90;;;;;;5051654;28;20666;-69
2021/05/24 05:19:28;;;;;;;6.60;6.00;;;11.30;99.90;;;;;;5052834;28;20127;-69
2021/05/24 05:21:56;;;;;;;7.18;6.47;;;11.40;99.90;;;;;;5051290;28;20129;-69
2021/05/24 05:24:24;;;;;;;6.80;6.20;;;11.50;99.90;;;;;;5051524;28;20049;-69
2021/05/24 05:26:51;;;;;;;6.65;6.05;;;11.60;99.90;;;;;;5052208;28;20490;-69
2021/05/24 05:29:19;;;;;;;6.63;5.93;;;11.60;99.90;;;;;;5048947;28;20079;-68
2021/05/24 05:31:46;;;;;;;6.72;6.03;;;11.80;99.90;;;;;;5052798;28;20190;-68
2021/05/24 05:34:14;;;;;;;6.32;5.72;;;11.80;99.90;;;;;;5050868;28;20480;-69
2021/05/24 05:36:41;;;;;;;6.05;5.55;;;11.90;99.90;;;;;;5050095;28;20041;-68
2021/05/24 05:39:09;;;;;;;6.60;5.90;;;11.90;99.90;;;;;;5048655;28;20049;-69
2021/05/24 05:41:36;;;;;;;6.50;6.00;;;12.00;99.90;;;;;;5049140;28;20065;-69
2021/05/24 05:44:05;;;;;;;6.68;5.63;;;12.10;99.90;;;;;;5051625;28;20385;-69
2021/05/24 05:46:33;;;;;;;7.97;6.20;;;12.20;99.90;;;;;;5052262;28;20580;-69
2021/05/24 05:49:01;;;;;;;6.15;5.65;;;12.20;99.90;;;;;;5052050;28;20052;-69
2021/05/24 05:51:28;;;;;;;7.20;5.63;;;12.40;99.90;;;;;;5047505;28;20045;-68
2021/05/24 05:53:56;;;;;;;6.18;5.63;;;12.40;99.90;;;;;;5049736;28;20081;-69
2021/05/24 05:56:24;;;;;;;6.20;5.70;;;12.50;99.90;;;;;;5047850;28;20496;-68
2021/05/24 05:58:51;;;;;;;7.18;6.47;;;12.70;99.90;;;;;;5052312;28;20126;-68
2021/05/24 06:01:19;;;;;;;8.55;6.47;;;12.80;99.90;;;;;;5051676;28;20045;-69
2021/05/24 06:03:46;;;;;;;6.35;5.85;;;12.90;99.90;;;;;;5051945;28;20053;-68
2021/05/24 06:06:14;;;;;;;7.35;6.43;;;13.00;99.90;;;;;;5051716;28;20111;-68
2021/05/24 06:08:41;;;;;;;7.32;6.50;;;13.10;99.90;;;;;;5050515;28;20186;-69
2021/05/24 06:11:08;;;;;;;8.00;6.28;;;13.30;99.90;;;;;;5049066;28;20103;-69
2021/05/24 06:13:36;;;;;;;6.10;5.70;;;13.40;99.90;;;;;;5051263;28;20110;-68
2021/05/24 06:16:03;;;;;;;7.35;6.72;;;13.60;99.90;;;;;;5049552;28;20091;-68
2021/05/24 06:18:31;;;;;;;6.95;6.38;;;13.70;99.90;;;;;;5050827;28;20111;-68
2021/05/24 06:20:58;;;;;;;6.70;6.10;;;13.80;99.90;;;;;;5050413;28;20052;-67
2021/05/24 06:23:26;;;;;;;6.88;6.38;;;13.90;99.90;;;;;;5049582;28;20079;-68
2021/05/24 06:25:53;;;;;;;6.95;6.35;;;14.00;99.90;;;;;;5051432;28;20384;-69
2021/05/24 06:28:20;;;;;;;6.90;6.30;;;14.10;99.90;;;;;;5048965;28;20450;-67
2021/05/24 06:30:49;;;;;;;6.90;6.38;;;14.20;99.90;;;;;;5051024;28;20438;-68
2021/05/24 06:33:16;;;;;;;7.00;6.40;;;14.30;99.90;;;;;;5050209;28;20543;-69
2021/05/24 06:35:44;;;;;;;7.20;6.50;;;14.40;99.90;;;;;;5049805;28;20092;-67
2021/05/24 06:38:11;;;;;;;7.15;6.55;;;14.50;99.90;;;;;;5048855;28;20076;-67
2021/05/24 06:40:38;;;;;;;6.88;6.38;;;14.40;99.90;;;;;;5048345;28;20075;-67
2021/05/24 06:43:06;;;;;;;6.50;6.00;;;14.50;99.90;;;;;;5050548;28;20065;-67
2021/05/24 06:45:34;;;;;;;6.60;6.10;;;14.60;99.90;;;;;;5030974;28;20049;-68
2021/05/24 06:48:02;;;;;;;6.97;6.38;;;14.70;99.90;;;;;;5047870;28;20052;-68
2021/05/24 06:50:29;;;;;;;8.10;7.32;;;14.80;99.90;;;;;;5048100;28;20110;-68
2021/05/24 06:52:57;;;;;;;7.00;6.40;;;14.90;99.90;;;;;;5049931;28;20068;-68
2021/05/24 06:55:25;;;;;;;6.35;5.85;;;15.10;99.90;;;;;;5051401;28;20144;-68
2021/05/24 06:57:52;;;;;;;7.28;6.68;;;15.30;99.90;;;;;;5047155;28;20398;-67
2021/05/24 07:00:20;;;;;;;7.18;6.68;;;15.50;99.90;;;;;;5047810;28;20053;-68
2021/05/24 07:02:48;;;;;;;7.18;6.43;;;15.70;99.90;;;;;;5050902;28;20056;-68
2021/05/24 07:05:15;;;;;;;7.18;5.93;;;15.80;99.90;;;;;;5046388;28;20392;-68
2021/05/24 07:07:44;;;;;;;7.70;6.97;;;15.90;99.90;;;;;;5047539;28;20499;-68
2021/05/24 07:10:13;;;;;;;7.57;7.03;;;16.00;99.90;;;;;;5048547;28;20052;-67
2021/05/24 07:12:41;;;;;;;7.40;6.88;;;16.10;99.90;;;;;;5060158;28;20504;-67
2021/05/24 07:15:09;;;;;;;7.82;7.30;;;16.10;99.90;;;;;;5050659;28;20506;-67
2021/05/24 07:17:36;;;;;;;7.35;6.75;;;16.20;99.90;;;;;;5051030;28;20517;-68
2021/05/24 07:20:06;;;;;;;7.38;6.78;;;16.40;99.90;;;;;;5047254;28;20044;-68
2021/05/24 07:22:35;;;;;;;7.60;6.90;;;16.40;99.90;;;;;;5049107;28;20095;-68
2021/05/24 07:25:06;;;;;;;7.82;7.15;;;16.50;99.90;;;;;;5046665;28;20092;-68
2021/05/24 07:27:34;;;;;;;7.68;7.00;;;16.60;99.90;;;;;;5049102;28;20052;-68
2021/05/24 07:30:01;;;;;;;7.50;6.82;;;16.50;99.90;;;;;;5049295;28;20049;-68
2021/05/24 07:32:29;;;;;;;7.60;7.00;;;16.50;99.90;;;;;;5047375;28;20351;-68
2021/05/24 07:34:57;;;;;;;7.43;6.90;;;16.50;99.90;;;;;;5044522;28;20148;-68
2021/05/24 07:37:24;;;;;;;7.72;7.13;;;16.60;99.90;;;;;;5044820;28;20136;-68
2021/05/24 07:39:52;;;;;;;7.82;7.03;;;16.80;99.90;;;;;;5048458;28;20049;-67
2021/05/24 07:42:20;;;;;;;7.63;6.97;;;17.00;99.90;;;;;;5047804;28;20041;-69
2021/05/24 07:44:47;;;;;;;7.70;7.20;;;17.10;99.90;;;;;;5030404;28;20048;-67
2021/05/24 07:47:14;;;;;;;7.60;7.00;;;17.00;99.90;;;;;;5049176;28;20110;-68
2021/05/24 07:49:42;;;;;;;7.65;7.07;;;17.10;99.90;;;;;;5049490;28;20049;-68
2021/05/24 07:52:09;;;;;;;7.60;7.00;;;17.20;99.90;;;;;;5046975;28;20045;-68
2021/05/24 07:54:37;;;;;;;7.55;6.95;;;17.40;99.90;;;;;;5045154;28;20052;-68
2021/05/24 07:57:04;;;;;;;7.40;6.90;;;17.50;99.90;;;;;;5049941;28;20056;-68
2021/05/24 07:59:32;;;;;;;7.88;7.28;;;17.60;99.90;;;;;;5048887;28;20045;-68
2021/05/24 08:02:02;;;;;;;7.60;7.00;;;17.50;99.90;;;;;;5049965;28;20403;-68
2021/05/24 08:04:30;;;;;;;7.47;6.88;;;17.40;99.90;;;;;;5022551;28;20519;-68
2021/05/24 08:06:58;;;;;;;7.20;6.70;;;17.30;99.90;;;;;;5047081;28;20507;-68
2021/05/24 08:09:28;;;;;;;7.30;6.70;;;17.40;99.90;;;;;;5046599;28;20080;-69
2021/05/24 08:11:58;;;;;;;7.50;6.80;;;17.20;99.90;;;;;;5047686;28;20061;-69
2021/05/24 08:14:26;;;;;;;7.30;6.70;;;17.30;99.90;;;;;;5043701;28;20051;-67
2021/05/24 08:16:54;;;;;;;7.38;6.78;;;17.20;99.90;;;;;;5046053;28;20126;-67
2021/05/24 08:19:22;;;;;;;7.20;6.60;;;17.30;99.90;;;;;;5027615;28;20049;-67
2021/05/24 08:21:50;;;;;;;7.28;6.72;;;17.30;99.90;;;;;;5046707;28;20076;-67
2021/05/24 08:24:18;;;;;;;6.93;6.22;;;17.20;99.90;;;;;;5050483;28;20477;-67
2021/05/24 08:26:47;;;;;;;7.32;6.82;;;17.20;99.90;;;;;;5050622;28;20456;-67
2021/05/24 08:29:14;;;;;;;7.03;6.38;;;17.20;99.90;;;;;;5052066;28;20777;-66
2021/05/24 08:31:43;;;;;;;7.28;6.68;;;17.40;99.90;;;;;;5047043;28;20049;-67
2021/05/24 08:34:10;;;;;;;6.78;6.15;;;17.60;99.90;;;;;;5051821;28;20782;-67
2021/05/24 08:36:38;;;;;;;8.32;7.65;;;17.70;99.90;;;;;;5047453;28;20049;-67
2021/05/24 08:39:06;;;;;;;8.73;7.93;;;17.60;99.90;;;;;;5051370;28;20614;-67
2021/05/24 08:41:38;;;;;;;7.27;6.57;;;17.60;99.90;;;;;;5051468;28;20458;-67
2021/05/24 08:44:08;;;;;;;6.15;5.70;;;17.70;99.90;;;;;;5052769;28;20303;-69
2021/05/24 08:46:39;;;;;;;7.45;6.95;;;17.90;99.90;;;;;;5049467;28;20053;-69
2021/05/24 08:49:11;;;;;;;7.15;6.65;;;18.20;99.90;;;;;;5046831;28;20136;-68
2021/05/24 08:51:38;;;;;;;7.20;6.55;;;18.50;99.90;;;;;;5048792;28;20079;-68
2021/05/24 08:54:06;;;;;;;7.50;6.13;;;18.60;99.90;;;;;;5049618;28;20057;-68
2021/05/24 08:56:33;;;;;;;7.47;6.93;;;18.80;99.90;;;;;;5051416;28;20052;-68
2021/05/24 08:59:02;;;;;;;6.80;6.30;;;18.90;99.90;;;;;;5053151;28;20041;-68
2021/05/24 09:01:30;;;;;;;7.57;6.90;;;19.30;99.90;;;;;;5049861;28;20132;-69
2021/05/24 09:04:00;;;;;;;7.35;6.68;;;19.60;99.90;;;;;;5048517;28;20471;-69
2021/05/24 09:06:42;;;;;;;7.93;7.35;;;19.80;99.90;;;;;;5050988;28;20076;-69
2021/05/24 09:09:11;;;;;;;8.55;7.88;;;20.20;99.90;;;;;;5051462;28;20099;-68
2021/05/24 09:11:40;;;;;;;7.78;7.22;;;20.60;99.90;;;;;;5051731;28;20135;-68
2021/05/24 09:14:19;;;;;;;7.05;6.53;;;20.60;99.90;;;;;;5053557;28;20053;-68
2021/05/24 09:16:57;;;;;;;8.80;8.00;;;20.80;99.90;;;;;;5045556;28;20384;-68
2021/05/24 09:19:27;;;;;;;8.23;7.55;;;20.70;99.90;;;;;;5050529;28;20045;-69
2021/05/24 09:22:04;;;;;;;8.60;8.00;;;20.50;99.80;;;;;;5052388;28;20377;-69
2021/05/24 09:24:45;;;;;;;7.80;7.20;;;20.50;99.20;;;;;;5052412;28;20070;-69
2021/05/24 09:27:22;;;;;;;7.80;7.30;;;20.60;98.10;;;;;;5045967;28;20085;-69
2021/05/24 09:29:52;;;;;;;7.20;6.70;;;20.60;98.20;;;;;;5047853;28;20115;-69
2021/05/24 09:32:24;;;;;;;7.28;6.78;;;20.70;98.30;;;;;;5045941;28;20098;-68
2021/05/24 09:34:54;;;;;;;8.82;8.10;;;20.70;98.00;;;;;;5051778;28;20048;-69
2021/05/24 09:37:32;;;;;;;8.20;7.50;;;20.90;98.00;;;;;;5052286;28;20103;-69
2021/05/24 09:40:16;;;;;;;7.80;7.10;;;21.10;97.40;;;;;;5049191;28;20485;-69
2021/05/24 09:42:49;;;;;;;8.60;7.90;;;21.10;97.10;;;;;;5036214;28;20040;-69
2021/05/24 09:45:21;;;;;;;7.18;6.50;;;21.20;96.70;;;;;;5050692;28;20041;-70
2021/05/24 09:47:49;;;;;;;12.13;10.05;;;21.30;96.80;;;;;;5035223;28;20115;-70
2021/05/24 09:50:19;;;;;;;9.95;9.02;;;21.40;96.20;;;;;;5052615;28;20111;-70
2021/05/24 09:52:47;;;;;;;9.57;8.73;;;21.60;96.00;;;;;;5048715;28;20499;-70
2021/05/24 09:55:20;;;;;;;11.45;10.40;;;21.80;95.40;;;;;;5047908;28;20045;-68
2021/05/24 09:58:01;;;;;;;8.80;7.90;;;21.70;95.00;;;;;;5049244;28;20099;-69
2021/05/24 10:00:40;;;;;;;;;;;21.60;95.30;;;;;;5050326;28;20118;-69
2021/05/24 10:03:10;;;;;;;8.10;7.35;;;21.70;95.00;;;;;;5047580;28;19921;-69
2021/05/24 10:05:43;;;;;;;7.70;7.10;;;21.80;94.50;;;;;;5047951;28;20045;-68
2021/05/24 10:08:11;;;;;;;7.80;7.20;;;21.90;94.60;;;;;;5049061;28;20037;-69
2021/05/24 10:10:40;;;;;;;7.20;6.70;;;22.00;94.50;;;;;;5047498;28;20076;-68
2021/05/24 10:13:08;;;;;;;7.90;7.10;;;22.10;94.60;;;;;;5049248;28;20746;-68
2021/05/24 10:15:38;;;;;;;7.50;6.95;;;22.40;94.60;;;;;;5049804;28;20063;-70
2021/05/24 10:18:06;;;;;;;7.68;7.05;;;22.70;94.10;;;;;;5051056;28;20044;-70
2021/05/24 10:20:34;;;;;;;7.68;7.00;;;22.90;94.00;;;;;;5049564;28;20111;-68
2021/05/24 10:23:06;;;;;;;8.23;7.55;;;23.10;93.50;;;;;;5045988;28;20496;-69
2021/05/24 10:25:36;;;;;;;12.23;8.80;;;23.00;92.80;;;;;;5048157;28;20527;-68
2021/05/24 10:28:06;;;;;;;8.52;7.30;;;23.00;92.70;;;;;;5050450;28;20132;-68
2021/05/24 10:30:55;;;;;;;7.45;6.95;;;23.10;93.20;;;;;;5046712;28;20557;-68
2021/05/24 10:33:27;;;;;;;21.40;8.10;;;23.50;92.70;;;;;;5049410;28;20064;-68
2021/05/24 10:35:54;;;;;;;7.65;7.05;;;23.70;92.60;;;;;;5049243;28;20057;-68
2021/05/24 10:38:30;;;;;;;8.43;7.50;;;23.50;92.10;;;;;;5048833;28;20080;-68
2021/05/24 10:41:16;;;;;;;7.90;7.30;;;23.40;92.00;;;;;;5044786;28;20045;-69
2021/05/24 10:43:55;;;;;;;8.57;7.93;;;23.20;92.20;;;;;;5047634;28;20061;-69
2021/05/24 10:46:26;;;;;;;10.32;9.45;;;23.10;92.70;;;;;;5042833;28;20551;-68
2021/05/24 10:48:57;;;;;;;9.85;9.05;;;23.30;92.90;;;;;;5049681;28;20079;-70
2021/05/24 10:51:52;;;;;;;7.83;7.20;;;23.30;92.20;;;;;;5048919;28;20454;-68
2021/05/24 10:54:19;;;;;;;7.63;7.13;;;22.70;92.10;;;;;;5048725;28;20083;-68
2021/05/24 10:57:05;;;;;;;8.07;7.50;;;22.50;92.90;;;;;;5044770;28;20340;-69
2021/05/24 10:59:41;;;;;;;8.43;7.60;;;22.40;92.90;;;;;;5048687;28;20045;-67
2021/05/24 11:02:11;;;;;;;8.15;7.45;;;22.40;92.60;;;;;;5048945;28;20075;-69
2021/05/24 11:04:48;;;;;;;7.53;6.93;;;22.10;92.40;;;;;;5049333;28;20144;-69
2021/05/24 11:07:43;;;;;;;9.98;9.18;;;22.10;92.00;;;;;;5049515;28;20045;-68
2021/05/24 11:10:17;;;;;;;8.30;7.70;;;22.10;91.90;;;;;;5048723;28;20454;-69
2021/05/24 11:12:46;;;;;;;11.27;10.18;;;21.90;91.70;;;;;;5050618;28;20128;-68
2021/05/24 11:15:43;;;;;;;7.75;7.15;;;21.80;92.00;;;;;;5046710;28;20049;-69
2021/05/24 11:18:22;;;;;;;9.05;8.32;;;21.90;91.80;;;;;;5047407;28;20570;-68
2021/05/24 11:20:57;;;;;;;8.32;7.72;;;22.10;91.80;;;;;;5064416;28;20561;-69
2021/05/24 11:26:18;;;;;;;9.65;8.30;;;22.00;91.90;;;;;;5048340;28;20348;-69
2021/05/24 11:29:01;;;;;;;8.40;7.80;;;21.90;92.00;;;;;;5046428;28;20041;-69
2021/05/24 11:31:44;;;;;;;7.63;7.10;;;21.80;92.20;;;;;;5048583;28;20049;-69
2021/05/24 11:34:26;;;;;;;6.03;5.63;;;21.70;92.20;;;;;;5045751;28;20475;-69
2021/05/24 11:36:56;;;;;;;7.32;6.60;;;21.70;92.60;;;;;;5049416;28;20064;-69
2021/05/24 11:39:26;;;;;;;7.10;6.60;;;21.70;92.30;;;;;;5047830;28;20057;-69
2021/05/24 11:42:11;;;;;;;7.80;7.20;;;21.70;92.50;;;;;;5049190;28;20045;-69
2021/05/24 11:44:45;;;;;;;7.75;7.07;;;21.60;92.90;;;;;;5047468;28;20037;-69
2021/05/24 11:47:15;;;;;;;7.40;6.80;;;21.60;93.10;;;;;;5047655;28;20057;-69
2021/05/24 11:50:04;;;;;;;7.35;6.75;;;21.80;93.00;;;;;;5046702;28;20060;-68
2021/05/24 11:52:36;;;;;;;8.68;7.00;;;21.70;93.30;;;;;;5059300;28;20519;-68
2021/05/24 11:55:10;;;;;;;7.60;6.90;;;21.50;93.40;;;;;;5046115;28;20087;-69
2021/05/24 11:57:42;;;;;;;7.32;6.82;;;21.00;93.40;;;;;;5029360;28;20437;-69
2021/05/24 12:00:13;;;;;;;7.85;7.30;;;21.00;93.90;;;;;;5049098;28;20126;-68
2021/05/24 12:02:43;;;;;;;7.18;6.57;;;21.10;94.00;;;;;;5047753;28;20102;-68
2021/05/24 12:05:16;;;;;;;7.85;6.65;;;21.20;94.10;;;;;;5047741;28;20077;-69
2021/05/24 12:07:45;;;;;;;7.63;6.93;;;21.20;94.30;;;;;;5047864;28;20047;-69
2021/05/24 12:10:13;;;;;;;8.48;7.65;;;21.30;94.20;;;;;;5026377;28;20132;-68
2021/05/24 12:12:40;;;;;;;7.90;7.20;;;21.50;94.10;;;;;;5046925;28;20053;-69
2021/05/24 12:15:15;;;;;;;7.38;6.78;;;21.60;94.10;;;;;;5045082;28;20040;-68
2021/05/24 12:17:50;;;;;;;7.47;6.97;;;21.80;93.60;;;;;;5046219;28;20079;-67
2021/05/24 12:20:21;;;;;;;7.63;7.13;;;21.60;93.80;;;;;;5046655;28;20045;-68
2021/05/24 12:22:52;;;;;;;7.18;6.47;;;22.10;93.70;;;;;;5047268;28;20051;-68
2021/05/24 12:25:19;;;;;;;6.18;5.68;;;22.50;93.20;;;;;;5049581;28;20037;-67
2021/05/24 12:27:50;;;;;;;7.88;7.28;;;23.10;93.10;;;;;;5046488;28;20059;-68
2021/05/24 12:30:20;;;;;;;7.70;7.00;;;23.80;92.60;;;;;;5063973;28;20052;-67
2021/05/24 12:33:03;;;;;;;7.00;6.30;;;24.40;91.70;;;;;;5046000;28;20045;-68
2021/05/24 12:35:34;;;;;;;7.35;6.75;;;25.40;91.00;;;;;;5045412;28;20492;-68
2021/05/24 12:38:29;;;;;;;7.80;7.17;;;26.40;89.30;;;;;;5045654;28;20052;-68
2021/05/24 12:40:59;;;;;;;7.50;7.00;;;26.80;87.90;;;;;;5047578;28;20118;-68
2021/05/24 12:43:27;;;;;;;7.38;6.80;;;27.50;85.70;;;;;;5047669;28;20044;-68
2021/05/24 12:45:54;;;;;;;7.90;7.15;;;27.70;84.30;;;;;;5047394;28;20444;-68
2021/05/24 12:48:28;;;;;;;7.80;7.30;;;28.30;84.00;;;;;;5046396;28;20448;-67
2021/05/24 12:50:55;;;;;;;7.70;7.10;;;28.10;81.80;;;;;;5047128;28;20408;-68
2021/05/24 12:53:24;;;;;;;8.02;7.35;;;27.20;81.40;;;;;;5044636;28;20087;-68
2021/05/24 12:55:53;;;;;;;7.88;7.28;;;27.40;82.40;;;;;;5038615;28;20057;-68
2021/05/24 12:58:23;;;;;;;8.10;7.47;;;27.60;81.30;;;;;;5043539;28;20095;-68
2021/05/24 13:00:56;;;;;;;8.70;8.00;;;26.90;81.90;;;;;;5045191;28;20266;-68
2021/05/24 13:03:43;;;;;;;12.20;10.98;;;26.60;82.20;;;;;;5047446;28;20049;-68
2021/05/24 13:06:13;;;;;;;8.05;7.45;;;26.50;82.70;;;;;;5048274;28;20411;-68
2021/05/24 13:09:02;;;;;;;8.50;7.68;;;26.10;83.40;;;;;;5051483;28;20045;-68
2021/05/24 13:11:51;;;;;;;8.40;7.07;;;25.40;84.90;;;;;;5048538;28;20044;-68